CYPR/YPR METAR and TAF weather

Enter ICAO airport designator
Station Type Date Time Source
CYPR METAR 2022/11/30 10:00 UTC NOAA

CYPR 301000Z AUTO 35007KT 9SM OVC120 M06/M15 A2958 RMK SLP022


Station Type Date Time Source
CYPR Decoded METAR 2022/11/30 10:00 UTC NOAA

Prince Rupert, B. C., Canada (CYPR) 54-18N 130-26W 34M
Nov 30, 2022 - 05:00 AM EST / 2022.11.30 1000 UTC
Wind: from the N (350 degrees) at 8 MPH (7 KT):0
Visibility: 9 mile(s):0
Sky conditions: overcast
Temperature: 21 F (-6 C)
Windchill: 12 F (-11 C):1
Dew Point: 5 F (-15 C)
Relative Humidity: 48%
Pressure (altimeter): 29.58 in. Hg (1001 hPa)
ob: CYPR 301000Z AUTO 35007KT 9SM OVC120 M06/M15 A2958 RMK SLP022
cycle: 10

Station Type Date Time Source
CYPR TAF 2022/11/30 07:42 UTC NOAA

TAF CYPR 300640Z 3007/3019 04010G20KT P6SM SKC
RMK FCST BASED ON AUTO OBS. NXT FCST BY 301300Z

Example: see airport list